createdAt,value
2022-09-28T00:02:57.852Z,5.18
2022-09-28T00:06:08.287Z,5.57
2022-09-28T00:09:10.670Z,5.53
2022-09-28T00:12:12.627Z,4.38
2022-09-28T00:15:14.736Z,4.82
2022-09-28T00:18:16.724Z,4.80
2022-09-28T00:21:23.973Z,4.72
2022-09-28T00:24:27.757Z,5.30
2022-09-28T00:27:29.955Z,4.25
2022-09-28T00:30:32.021Z,5.10
2022-09-28T00:33:33.950Z,3.83
2022-09-28T00:36:35.911Z,4.35
2022-09-28T00:39:41.396Z,5.03
2022-09-28T00:42:45.142Z,4.30
2022-09-28T00:45:59.057Z,4.53
2022-09-28T00:49:09.474Z,4.88
2022-09-28T00:52:16.276Z,4.28
2022-09-28T00:55:22.809Z,4.45
2022-09-28T00:58:29.956Z,4.68
2022-09-28T01:01:31.996Z,4.07
2022-09-28T01:04:33.977Z,4.80
2022-09-28T01:07:37.291Z,4.25
2022-09-28T01:10:40.740Z,4.38
2022-09-28T01:13:43.482Z,4.57
2022-09-28T01:16:56.901Z,4.90
2022-09-28T01:20:33.484Z,5.55
2022-09-28T01:24:10.401Z,5.25
2022-09-28T01:27:41.521Z,5.10
2022-09-28T01:30:56.364Z,4.15
2022-09-28T01:34:05.455Z,4.57
2022-09-28T01:40:15.018Z,4.65
2022-09-28T01:43:28.785Z,4.93
2022-09-28T01:46:37.308Z,4.72
2022-09-28T01:49:48.414Z,4.68
2022-09-28T01:53:01.113Z,4.93
2022-09-28T01:56:13.103Z,4.95
2022-09-28T01:59:23.185Z,4.90
2022-09-28T02:02:32.633Z,4.40
2022-09-28T02:05:38.899Z,5.07
2022-09-28T02:08:50.572Z,5.95
2022-09-28T02:12:00.014Z,6.13
2022-09-28T02:15:33.781Z,4.70
2022-09-28T02:18:36.612Z,4.88
2022-09-28T02:22:02.928Z,4.63
2022-09-28T02:25:28.915Z,5.32
2022-09-28T02:28:31.695Z,4.78
2022-09-28T02:31:33.968Z,5.60
2022-09-28T02:34:36.220Z,5.28
2022-09-28T02:37:40.045Z,5.60
2022-09-28T02:40:47.590Z,5.57
2022-09-28T02:44:03.858Z,6.00
2022-09-28T02:47:24.554Z,4.82
2022-09-28T02:50:46.724Z,5.88
2022-09-28T02:53:54.520Z,6.10
2022-09-28T02:57:05.269Z,6.05
2022-09-28T03:00:15.216Z,5.25
2022-09-28T03:03:31.372Z,4.95
2022-09-28T03:06:55.018Z,5.25
2022-09-28T03:10:24.543Z,5.68
2022-09-28T03:13:28.550Z,5.82
2022-09-28T03:16:32.248Z,5.88
2022-09-28T03:19:35.066Z,5.55
2022-09-28T03:22:37.235Z,5.00
2022-09-28T03:25:39.520Z,5.13
2022-09-28T03:28:41.569Z,5.50
2022-09-28T03:31:49.229Z,5.47
2022-09-28T03:34:51.960Z,4.72
2022-09-28T03:37:57.228Z,4.55
2022-09-28T03:41:01.506Z,6.50
2022-09-28T03:44:09.302Z,5.40
2022-09-28T03:47:11.599Z,5.95
2022-09-28T03:50:13.867Z,5.55
2022-09-28T03:53:15.841Z,5.53
2022-09-28T03:56:18.421Z,5.05
2022-09-28T03:59:21.097Z,6.03
2022-09-28T04:02:23.098Z,5.63
2022-09-28T04:05:25.082Z,5.72
2022-09-28T04:08:27.589Z,5.85
2022-09-28T04:11:38.511Z,5.45
2022-09-28T04:14:52.022Z,6.10
2022-09-28T04:17:54.075Z,6.20
2022-09-28T04:21:14.184Z,5.85
2022-09-28T04:24:26.696Z,5.72
2022-09-28T04:27:47.504Z,5.47
2022-09-28T04:30:49.899Z,6.45
2022-09-28T04:33:52.331Z,6.55
2022-09-28T04:36:54.659Z,6.97
2022-09-28T04:39:56.865Z,6.35
2022-09-28T04:42:58.928Z,5.75
2022-09-28T04:46:03.012Z,6.13
2022-09-28T04:49:11.905Z,5.45
2022-09-28T04:52:24.550Z,6.22
2022-09-28T04:55:32.360Z,5.90
2022-09-28T04:58:35.128Z,6.28
2022-09-28T05:01:37.834Z,5.63
2022-09-28T05:04:59.414Z,5.03
2022-09-28T05:08:11.416Z,6.03
2022-09-28T05:11:14.290Z,5.63
2022-09-28T05:14:16.903Z,6.30
2022-09-28T05:17:18.879Z,5.93
2022-09-28T05:20:20.925Z,7.22
2022-09-28T05:23:22.902Z,6.43
2022-09-28T05:26:25.180Z,6.28
2022-09-28T05:29:31.353Z,6.55
2022-09-28T05:32:52.752Z,6.35
2022-09-28T05:36:13.133Z,6.65
2022-09-28T05:39:17.139Z,6.43
2022-09-28T05:42:20.293Z,6.18
2022-09-28T05:45:22.362Z,6.15
2022-09-28T05:48:25.392Z,6.40
2022-09-28T05:51:28.171Z,7.75
2022-09-28T05:54:30.181Z,8.85
2022-09-28T05:57:32.385Z,9.15
2022-09-28T06:00:35.322Z,7.47
2022-09-28T06:03:37.988Z,8.35
2022-09-28T06:06:53.843Z,7.65
2022-09-28T06:09:56.737Z,8.23
2022-09-28T06:13:12.618Z,9.90
2022-09-28T06:16:19.048Z,8.48
2022-09-28T06:19:21.017Z,8.60
2022-09-28T06:22:42.542Z,8.52
2022-09-28T06:25:44.576Z,8.57
2022-09-28T06:28:46.597Z,7.72
2022-09-28T06:31:48.738Z,7.93
2022-09-28T06:34:55.430Z,7.20
2022-09-28T06:38:00.226Z,7.05
2022-09-28T06:41:02.474Z,7.65
2022-09-28T06:44:04.501Z,7.32
2022-09-28T06:47:24.611Z,7.38
2022-09-28T06:50:50.113Z,6.38
2022-09-28T06:54:14.966Z,5.90
2022-09-28T06:57:43.259Z,6.65
2022-09-28T07:00:46.229Z,5.60
2022-09-28T07:03:51.443Z,5.50
2022-09-28T07:07:15.831Z,5.75
2022-09-28T07:10:58.522Z,6.07
2022-09-28T07:14:29.919Z,5.53
2022-09-28T07:17:52.098Z,5.15
2022-09-28T07:21:02.831Z,4.05
2022-09-28T07:24:06.182Z,6.03
2022-09-28T07:27:29.343Z,5.45
2022-09-28T07:30:51.590Z,4.88
2022-09-28T07:34:12.134Z,5.65
2022-09-28T07:37:30.219Z,7.60
2022-09-28T07:40:53.029Z,5.03
2022-09-28T07:43:55.747Z,4.65
2022-09-28T07:46:57.790Z,5.18
2022-09-28T07:50:11.845Z,5.35
2022-09-28T07:53:25.110Z,5.25
2022-09-28T07:56:41.600Z,4.70
2022-09-28T08:00:10.396Z,4.57
2022-09-28T08:03:22.694Z,4.85
2022-09-28T08:06:24.699Z,5.07
2022-09-28T08:09:26.656Z,5.78
2022-09-28T08:12:47.682Z,4.38
2022-09-28T08:16:15.820Z,3.92
2022-09-28T08:20:11.805Z,4.65
2022-09-28T08:23:13.968Z,4.57
2022-09-28T08:26:16.665Z,3.33
2022-09-28T08:29:20.209Z,4.15
2022-09-28T08:32:25.180Z,2.70
2022-09-28T08:35:46.909Z,2.97
2022-09-28T08:39:06.420Z,2.97
2022-09-28T08:42:34.896Z,2.25
2022-09-28T08:46:00.773Z,2.85
2022-09-28T08:49:37.095Z,3.00
2022-09-28T08:52:52.540Z,3.22
2022-09-28T08:56:42.748Z,2.30
2022-09-28T08:59:50.496Z,2.35
2022-09-28T09:02:58.139Z,2.75
2022-09-28T09:06:08.731Z,2.15
2022-09-28T09:09:45.578Z,2.90
2022-09-28T09:13:00.840Z,3.10
2022-09-28T09:16:19.924Z,2.17
2022-09-28T09:19:54.309Z,2.90
2022-09-28T09:23:34.888Z,2.58
2022-09-28T09:26:40.670Z,1.83
2022-09-28T09:29:55.281Z,3.03
2022-09-28T09:33:28.145Z,2.15
2022-09-28T09:37:43.478Z,1.83
2022-09-28T09:41:36.093Z,1.77
2022-09-28T09:45:35.747Z,1.52
2022-09-28T09:49:20.625Z,1.48
2022-09-28T09:52:26.787Z,1.02
2022-09-28T09:55:41.452Z,1.30
2022-09-28T09:59:18.870Z,1.38
2022-09-28T10:02:57.925Z,1.70
2022-09-28T10:06:17.518Z,1.42
2022-09-28T10:09:56.283Z,1.23
2022-09-28T10:13:11.917Z,1.70
2022-09-28T10:16:15.963Z,1.20
2022-09-28T10:19:33.069Z,1.48
2022-09-28T10:22:57.016Z,1.45
2022-09-28T10:26:10.583Z,2.03
2022-09-28T10:29:19.966Z,1.42
2022-09-28T10:32:27.800Z,1.70
2022-09-28T10:35:42.296Z,1.17
2022-09-28T10:38:48.037Z,1.75
2022-09-28T10:42:04.396Z,2.00
2022-09-28T10:45:23.465Z,1.90
2022-09-28T10:48:27.749Z,1.83
2022-09-28T10:51:45.278Z,1.63
2022-09-28T10:54:54.764Z,2.17
2022-09-28T10:57:59.733Z,1.80
2022-09-28T11:01:13.900Z,1.67
2022-09-28T11:04:22.115Z,1.73
2022-09-28T11:07:34.110Z,1.50
2022-09-28T11:10:37.280Z,1.80
2022-09-28T11:13:56.268Z,1.75
2022-09-28T11:17:23.622Z,2.20
2022-09-28T11:20:28.359Z,2.20
2022-09-28T11:23:33.784Z,1.65
2022-09-28T11:26:52.644Z,1.65
2022-09-28T11:29:59.426Z,1.40
2022-09-28T11:33:47.285Z,1.60
2022-09-28T11:37:20.207Z,1.80
2022-09-28T11:40:31.750Z,1.70
2022-09-28T11:44:00.654Z,1.50
2022-09-28T11:47:30.309Z,2.05
2022-09-28T11:53:59.706Z,1.70
2022-09-28T11:57:04.258Z,1.85
2022-09-28T12:00:13.990Z,1.50
2022-09-28T12:03:29.496Z,1.63
2022-09-28T12:06:38.292Z,1.40
2022-09-28T12:09:50.569Z,1.58
2022-09-28T12:13:16.898Z,1.60
2022-09-28T12:17:05.025Z,2.30
2022-09-28T12:20:01.160Z,1.42
2022-09-28T12:23:08.329Z,1.77
2022-09-28T12:26:44.114Z,1.58
2022-09-28T12:29:55.214Z,1.83
2022-09-28T12:33:15.491Z,1.58
2022-09-28T12:36:50.795Z,1.48
2022-09-28T12:40:28.240Z,1.40
2022-09-28T12:43:55.241Z,1.50
2022-09-28T12:47:28.629Z,1.65
2022-09-28T12:51:20.048Z,1.60
2022-09-28T12:54:38.954Z,1.63
2022-09-28T13:01:00.466Z,1.65
2022-09-28T13:04:12.702Z,1.40
2022-09-28T13:07:22.246Z,1.73
2022-09-28T13:10:40.262Z,1.25
2022-09-28T13:14:08.157Z,1.58
2022-09-28T13:17:35.786Z,1.52
2022-09-28T13:20:47.133Z,1.15
2022-09-28T13:23:57.844Z,1.48
2022-09-28T13:27:15.714Z,1.58
2022-09-28T13:30:19.333Z,1.52
2022-09-28T13:33:40.665Z,1.90
2022-09-28T13:36:47.348Z,1.63
2022-09-28T13:40:05.926Z,1.70
2022-09-28T13:43:24.544Z,2.78
2022-09-28T13:46:45.199Z,1.80
2022-09-28T13:50:11.803Z,1.60
2022-09-28T13:53:40.240Z,2.17
2022-09-28T13:56:57.775Z,1.65
2022-09-28T14:00:03.021Z,1.90
2022-09-28T14:03:19.713Z,1.77
2022-09-28T14:06:32.930Z,1.40
2022-09-28T14:09:46.760Z,1.42
2022-09-28T14:12:53.498Z,1.67
2022-09-28T14:16:18.318Z,1.58
2022-09-28T14:19:28.692Z,1.67
2022-09-28T14:23:01.002Z,1.58
2022-09-28T14:26:12.252Z,1.52
2022-09-28T14:29:40.578Z,1.92
2022-09-28T14:32:58.801Z,1.52
2022-09-28T14:36:06.739Z,1.15
2022-09-28T14:39:45.314Z,1.95
2022-09-28T14:43:24.285Z,1.48
2022-09-28T14:46:33.415Z,1.27
2022-09-28T14:49:35.435Z,2.08
2022-09-28T14:52:40.585Z,1.73
2022-09-28T14:56:00.695Z,1.75
2022-09-28T14:59:02.710Z,1.27
2022-09-28T15:02:10.612Z,1.10
2022-09-28T15:05:17.998Z,1.20
2022-09-28T15:08:21.137Z,1.30
2022-09-28T15:11:26.419Z,1.60
2022-09-28T15:14:33.589Z,1.60
2022-09-28T15:17:40.180Z,1.00
2022-09-28T15:20:46.646Z,1.00
2022-09-28T15:23:49.805Z,1.42
2022-09-28T15:26:53.263Z,2.08
2022-09-28T15:29:59.958Z,2.03
2022-09-28T15:33:22.145Z,1.13
2022-09-28T15:36:28.045Z,1.13
2022-09-28T15:39:34.861Z,1.55
2022-09-28T15:42:37.274Z,1.27
2022-09-28T15:45:40.694Z,1.73
2022-09-28T15:48:52.142Z,1.27
2022-09-28T15:52:03.036Z,1.70
2022-09-28T15:55:29.224Z,2.08
2022-09-28T15:58:31.165Z,0.98
2022-09-28T16:01:36.871Z,1.67
2022-09-28T16:04:54.192Z,1.65
2022-09-28T16:07:56.655Z,1.70
2022-09-28T16:11:06.281Z,1.83
2022-09-28T16:14:19.818Z,1.75
2022-09-28T16:17:32.438Z,1.48
2022-09-28T16:20:37.973Z,2.00
2022-09-28T16:23:42.725Z,3.03
2022-09-28T16:26:44.758Z,3.45
2022-09-28T16:30:24.252Z,3.42
2022-09-28T16:33:32.606Z,2.97
2022-09-28T16:36:46.011Z,3.38
2022-09-28T16:39:47.962Z,2.85
2022-09-28T16:42:50.188Z,3.38
2022-09-28T16:45:57.593Z,2.95
2022-09-28T16:49:00.036Z,3.20
2022-09-28T16:52:02.472Z,2.42
2022-09-28T16:55:39.522Z,4.30
2022-09-28T16:58:39.145Z,3.38
2022-09-28T17:01:43.780Z,3.42
2022-09-28T17:04:47.799Z,2.42
2022-09-28T17:07:59.716Z,2.85
2022-09-28T17:11:24.464Z,2.70
2022-09-28T17:14:26.956Z,3.60
2022-09-28T17:17:31.468Z,3.40
2022-09-28T17:20:36.586Z,3.75
2022-09-28T17:23:38.699Z,3.28
2022-09-28T17:26:43.863Z,4.05
2022-09-28T17:29:45.930Z,4.03
2022-09-28T17:32:48.619Z,3.88
2022-09-28T17:35:53.538Z,3.67
2022-09-28T17:38:55.634Z,2.67
2022-09-28T17:41:57.636Z,3.58
2022-09-28T17:44:59.657Z,3.40
2022-09-28T17:48:01.869Z,3.33
2022-09-28T17:51:05.725Z,3.90
2022-09-28T17:54:08.591Z,2.83
2022-09-28T17:57:10.741Z,3.38
2022-09-28T18:00:17.208Z,2.50
2022-09-28T18:03:21.974Z,3.05
2022-09-28T18:06:25.045Z,3.00
2022-09-28T18:09:27.831Z,3.55
2022-09-28T18:12:29.762Z,3.60
2022-09-28T18:15:31.791Z,3.13
2022-09-28T18:18:36.741Z,3.88
2022-09-28T18:21:38.797Z,3.00
2022-09-28T18:24:40.882Z,2.90
2022-09-28T18:27:43.267Z,3.60
2022-09-28T18:30:45.754Z,2.78
2022-09-28T18:33:48.628Z,3.25
2022-09-28T18:36:50.562Z,2.70
2022-09-28T18:39:52.607Z,3.58
2022-09-28T18:42:54.495Z,4.28
2022-09-28T18:45:56.493Z,3.25
2022-09-28T18:48:58.543Z,4.05
2022-09-28T18:52:01.371Z,3.10
2022-09-28T18:55:04.313Z,3.20
2022-09-28T18:58:08.518Z,3.28
2022-09-28T19:01:30.054Z,3.50
2022-09-28T19:04:32.755Z,2.90
2022-09-28T19:07:34.858Z,3.10
2022-09-28T19:10:36.858Z,3.53
2022-09-28T19:13:39.254Z,3.30
2022-09-28T19:16:42.793Z,3.38
2022-09-28T19:19:45.124Z,2.80
2022-09-28T19:22:49.639Z,3.05
2022-09-28T19:25:51.639Z,3.08
2022-09-28T19:28:55.494Z,2.92
2022-09-28T19:31:58.066Z,2.35
2022-09-28T19:35:00.086Z,3.80
2022-09-28T19:38:02.122Z,3.22
2022-09-28T19:41:42.221Z,3.13
2022-09-28T19:44:46.417Z,2.72
2022-09-28T19:47:49.290Z,2.47
2022-09-28T19:51:05.652Z,3.08
2022-09-28T19:54:08.576Z,2.92
2022-09-28T19:57:11.609Z,3.38
2022-09-28T20:00:13.713Z,3.33
2022-09-28T20:03:15.728Z,3.20
2022-09-28T20:06:17.828Z,3.33
2022-09-28T20:09:19.935Z,3.40
2022-09-28T20:12:22.406Z,2.97
2022-09-28T20:15:24.684Z,1.95
2022-09-28T20:18:27.558Z,2.90
2022-09-28T20:21:29.914Z,2.80
2022-09-28T20:24:32.693Z,2.90
2022-09-28T20:27:34.621Z,3.35
2022-09-28T20:30:37.415Z,3.17
2022-09-28T20:33:39.477Z,3.22
2022-09-28T20:36:43.193Z,2.30
2022-09-28T20:39:45.478Z,2.65
2022-09-28T20:42:47.457Z,3.38
2022-09-28T20:45:50.629Z,3.13
2022-09-28T20:48:55.097Z,3.70
2022-09-28T20:51:57.008Z,2.92
2022-09-28T20:54:58.958Z,2.63
2022-09-28T20:58:05.211Z,3.00
2022-09-28T21:01:13.727Z,2.90
2022-09-28T21:04:15.793Z,3.55
2022-09-28T21:07:17.719Z,3.38
2022-09-28T21:10:19.732Z,2.92
2022-09-28T21:13:22.726Z,3.17
2022-09-28T21:16:26.516Z,3.35
2022-09-28T21:19:29.488Z,3.50
2022-09-28T21:22:31.477Z,3.42
2022-09-28T21:25:33.419Z,3.15
2022-09-28T21:28:36.662Z,3.55
2022-09-28T21:31:41.056Z,3.33
2022-09-28T21:34:43.015Z,2.88
2022-09-28T21:37:46.323Z,3.63
2022-09-28T21:40:48.555Z,3.20
2022-09-28T21:43:50.916Z,2.72
2022-09-28T21:46:52.851Z,3.22
2022-09-28T21:49:54.797Z,3.22
2022-09-28T21:52:56.995Z,3.92
2022-09-28T21:56:00.305Z,3.42
2022-09-28T21:59:02.441Z,3.15
2022-09-28T22:02:06.612Z,3.38
2022-09-28T22:05:09.693Z,3.60
2022-09-28T22:08:11.895Z,2.92
2022-09-28T22:11:20.234Z,2.90
2022-09-28T22:14:22.465Z,2.88
2022-09-28T22:17:24.810Z,3.05
2022-09-28T22:20:26.772Z,3.67
2022-09-28T22:23:29.840Z,3.40
2022-09-28T22:26:33.715Z,3.13
2022-09-28T22:29:36.162Z,3.20
2022-09-28T22:32:40.746Z,2.70
2022-09-28T22:35:42.631Z,4.13
2022-09-28T22:38:45.054Z,3.25
2022-09-28T22:41:47.046Z,3.30
2022-09-28T22:44:49.043Z,2.92
2022-09-28T22:47:50.986Z,3.63
2022-09-28T22:50:52.988Z,3.08
2022-09-28T22:53:56.573Z,3.47
2022-09-28T22:56:58.514Z,2.88
2022-09-28T23:00:00.676Z,3.13
2022-09-28T23:03:02.821Z,3.30
2022-09-28T23:06:04.880Z,2.78
2022-09-28T23:09:06.924Z,2.88
2022-09-28T23:12:08.963Z,3.08
2022-09-28T23:15:11.292Z,3.70
2022-09-28T23:18:13.253Z,2.47
2022-09-28T23:21:18.200Z,2.80
2022-09-28T23:24:20.155Z,2.40
2022-09-28T23:27:22.194Z,2.78
2022-09-28T23:30:24.264Z,3.55
2022-09-28T23:33:26.181Z,2.78
2022-09-28T23:36:31.166Z,2.53
2022-09-28T23:39:33.219Z,2.55
2022-09-28T23:42:35.654Z,2.95
2022-09-28T23:45:37.516Z,2.22
2022-09-28T23:48:39.496Z,2.30
2022-09-28T23:51:41.501Z,2.50
2022-09-28T23:54:43.405Z,2.45
2022-09-28T23:57:45.814Z,2.72
